createdAt,value
2023-11-30T00:00:15.197Z,26.00
2023-11-30T00:05:16.629Z,19.83
2023-11-30T00:10:18.580Z,24.37
2023-11-30T00:15:20.003Z,23.48
2023-11-30T00:20:21.389Z,22.77
2023-11-30T00:25:23.027Z,30.57
2023-11-30T00:30:24.412Z,27.77
2023-11-30T00:35:25.833Z,25.83
2023-11-30T00:40:27.121Z,24.98
2023-11-30T00:45:28.480Z,21.88
2023-11-30T00:50:29.876Z,20.87
2023-11-30T00:55:31.208Z,19.38
2023-11-30T01:00:32.629Z,20.23
2023-11-30T01:05:34.017Z,19.10
2023-11-30T01:10:35.381Z,18.98
2023-11-30T01:15:36.676Z,23.67
2023-11-30T01:20:37.945Z,25.02
2023-11-30T01:25:39.276Z,17.57
2023-11-30T01:30:40.618Z,21.50
2023-11-30T01:35:41.891Z,17.38
2023-11-30T01:40:43.200Z,19.40
2023-11-30T01:45:44.611Z,20.27
2023-11-30T01:50:46.389Z,20.93
2023-11-30T01:55:48.975Z,16.45
2023-11-30T02:00:51.221Z,18.02
2023-11-30T02:05:52.930Z,17.00
2023-11-30T02:10:54.389Z,17.63
2023-11-30T02:15:55.787Z,17.87
2023-11-30T02:20:57.200Z,15.27
2023-11-30T02:25:58.630Z,16.10
2023-11-30T02:30:59.942Z,18.43
2023-11-30T02:36:01.406Z,18.60
2023-11-30T02:41:02.818Z,14.47
2023-11-30T02:46:04.226Z,15.50
2023-11-30T02:51:05.917Z,16.15
2023-11-30T02:56:07.527Z,15.43
2023-11-30T03:01:08.879Z,14.43
2023-11-30T03:06:13.288Z,13.50
2023-11-30T03:11:14.774Z,16.48
2023-11-30T03:16:23.138Z,17.88
2023-11-30T03:21:24.680Z,17.07
2023-11-30T03:26:26.055Z,14.73
2023-11-30T03:31:27.403Z,17.93
2023-11-30T03:36:28.782Z,15.02
2023-11-30T03:41:30.174Z,15.75
2023-11-30T03:46:31.533Z,13.77
2023-11-30T03:51:32.916Z,14.43
2023-11-30T03:56:34.299Z,12.37
2023-11-30T04:01:35.689Z,13.88
2023-11-30T04:06:37.075Z,12.88
2023-11-30T04:11:38.423Z,13.30
2023-11-30T04:16:39.820Z,12.00
2023-11-30T04:21:41.320Z,12.40
2023-11-30T04:26:42.766Z,10.65
2023-11-30T04:31:44.146Z,14.38
2023-11-30T04:36:45.866Z,11.17
2023-11-30T04:41:48.111Z,12.10
2023-11-30T04:46:49.446Z,11.50
2023-11-30T04:51:50.836Z,14.90
2023-11-30T04:56:52.171Z,15.98
2023-11-30T05:01:53.617Z,14.47
2023-11-30T05:06:55.073Z,13.77
2023-11-30T05:11:56.485Z,12.90
2023-11-30T05:16:57.906Z,13.30
2023-11-30T05:21:59.298Z,11.77
2023-11-30T05:27:00.627Z,13.67
2023-11-30T05:32:01.944Z,12.60
2023-11-30T05:37:06.281Z,14.03
2023-11-30T05:42:08.290Z,15.90
2023-11-30T05:47:09.579Z,16.35
2023-11-30T05:52:10.922Z,12.43
2023-11-30T05:57:12.722Z,10.80
2023-11-30T06:02:14.098Z,16.93
2023-11-30T06:07:15.393Z,12.45
2023-11-30T06:12:16.822Z,13.73
2023-11-30T06:17:18.340Z,14.20
2023-11-30T06:22:19.630Z,14.23
2023-11-30T06:27:21.372Z,16.87
2023-11-30T06:32:22.832Z,45.15
2023-11-30T06:37:24.142Z,16.88
2023-11-30T06:42:25.504Z,16.07
2023-11-30T06:47:27.043Z,16.83
2023-11-30T06:52:28.391Z,20.27
2023-11-30T06:57:29.736Z,16.27
2023-11-30T07:02:31.057Z,19.65
2023-11-30T07:07:36.511Z,16.50
2023-11-30T07:12:38.754Z,16.17
2023-11-30T07:17:40.111Z,14.77
2023-11-30T07:22:41.443Z,16.02
2023-11-30T07:27:43.029Z,17.27
2023-11-30T07:32:44.625Z,17.43
2023-11-30T07:37:45.973Z,19.13
2023-11-30T07:42:47.312Z,14.97
2023-11-30T07:47:48.702Z,15.70
2023-11-30T07:52:50.116Z,34.80
2023-11-30T07:57:51.428Z,17.47
2023-11-30T08:02:53.845Z,15.70
2023-11-30T08:07:55.959Z,42.97
2023-11-30T08:12:57.622Z,23.70
2023-11-30T08:17:58.972Z,15.25
2023-11-30T08:23:00.304Z,13.87
2023-11-30T08:28:01.615Z,14.60
2023-11-30T08:33:06.859Z,16.63
2023-11-30T08:38:10.262Z,23.45
2023-11-30T08:43:11.574Z,28.00
2023-11-30T08:48:13.110Z,13.03
2023-11-30T08:53:14.589Z,15.02
2023-11-30T08:58:16.228Z,16.40
2023-11-30T09:03:19.291Z,14.60
2023-11-30T09:08:20.746Z,14.23
2023-11-30T09:13:22.178Z,14.37
2023-11-30T09:18:24.111Z,15.25
2023-11-30T09:23:27.406Z,15.93
2023-11-30T09:28:29.093Z,18.17
2023-11-30T09:33:30.487Z,17.15
2023-11-30T09:38:32.461Z,15.27
2023-11-30T09:43:34.043Z,19.77
2023-11-30T09:48:35.397Z,15.67
2023-11-30T09:53:36.771Z,16.17
2023-11-30T09:58:38.739Z,14.02
2023-11-30T10:03:40.193Z,14.73
2023-11-30T10:08:42.191Z,15.13
2023-11-30T10:13:43.942Z,15.70
2023-11-30T10:18:46.126Z,14.90
2023-11-30T10:23:47.665Z,17.48
2023-11-30T10:28:50.089Z,16.23
2023-11-30T10:33:56.028Z,15.90
2023-11-30T10:39:02.308Z,14.87
2023-11-30T10:44:04.667Z,13.05
2023-11-30T10:49:06.755Z,15.68
2023-11-30T10:54:13.384Z,13.37
2023-11-30T10:59:15.414Z,14.25
2023-11-30T11:04:16.860Z,13.33
2023-11-30T11:09:18.399Z,13.07
2023-11-30T11:14:46.117Z,10.55
2023-11-30T11:19:47.468Z,11.07
2023-11-30T11:24:49.273Z,10.63
2023-11-30T11:29:50.624Z,10.90
2023-11-30T11:34:52.072Z,12.82
2023-11-30T11:39:53.554Z,12.00
2023-11-30T11:44:54.916Z,13.20
2023-11-30T11:49:56.275Z,11.65
2023-11-30T11:55:01.652Z,14.13
2023-11-30T12:00:08.549Z,14.00
2023-11-30T12:05:14.105Z,12.27
2023-11-30T12:10:34.043Z,14.03
2023-11-30T12:15:35.389Z,14.18
2023-11-30T12:20:36.743Z,14.37
2023-11-30T12:25:39.617Z,12.80
2023-11-30T12:30:41.063Z,11.48
2023-11-30T12:35:42.497Z,13.67
2023-11-30T12:40:43.810Z,13.10
2023-11-30T12:45:45.342Z,14.20
2023-11-30T12:50:46.714Z,12.23
2023-11-30T12:55:48.085Z,13.00
2023-11-30T13:00:49.494Z,11.37
2023-11-30T13:05:50.829Z,12.48
2023-11-30T13:10:52.208Z,12.57
2023-11-30T13:15:54.969Z,11.30
2023-11-30T13:20:56.332Z,12.43
2023-11-30T13:25:58.756Z,13.13
2023-11-30T13:31:00.246Z,14.65
2023-11-30T13:36:01.647Z,16.50
2023-11-30T13:41:03.048Z,12.85
2023-11-30T13:46:05.606Z,15.70
2023-11-30T13:51:10.341Z,18.57
2023-11-30T13:56:12.077Z,18.92
2023-11-30T14:01:13.740Z,16.10
2023-11-30T14:06:19.031Z,19.60
2023-11-30T14:11:20.412Z,21.30
2023-11-30T14:16:22.062Z,20.40
2023-11-30T14:21:23.436Z,16.60
2023-11-30T14:26:26.729Z,15.50
2023-11-30T14:31:28.134Z,16.58
2023-11-30T14:36:30.772Z,15.43
2023-11-30T14:41:32.505Z,18.40
2023-11-30T14:46:34.566Z,15.85
2023-11-30T14:51:36.540Z,21.30
2023-11-30T14:56:37.916Z,23.15
2023-11-30T15:01:39.828Z,20.48
2023-11-30T15:06:41.499Z,19.60
2023-11-30T15:11:44.305Z,18.38
2023-11-30T15:16:45.652Z,23.80
2023-11-30T15:21:47.133Z,28.08
2023-11-30T15:26:48.469Z,34.97
2023-11-30T15:31:49.947Z,27.00
2023-11-30T15:36:51.399Z,24.73
2023-11-30T15:41:52.895Z,24.30
2023-11-30T15:46:54.240Z,23.17
2023-11-30T15:51:55.646Z,22.92
2023-11-30T15:56:57.052Z,24.43
2023-11-30T16:01:58.486Z,25.58
2023-11-30T16:06:59.963Z,30.53
2023-11-30T16:12:01.347Z,32.95
2023-11-30T16:17:02.963Z,37.47
2023-11-30T16:22:04.917Z,33.10
2023-11-30T16:27:06.331Z,34.72
2023-11-30T16:32:07.674Z,36.27
2023-11-30T16:37:09.706Z,34.80
2023-11-30T16:42:11.066Z,42.58
2023-11-30T16:47:13.531Z,24.63
2023-11-30T16:52:14.924Z,37.97
2023-11-30T16:57:16.451Z,23.97
2023-11-30T17:02:18.160Z,30.60
2023-11-30T17:07:21.537Z,31.13
2023-11-30T17:12:23.005Z,27.67
2023-11-30T17:17:24.470Z,28.55
2023-11-30T17:22:25.783Z,36.53
2023-11-30T17:27:27.140Z,35.20
2023-11-30T17:32:28.929Z,34.55
2023-11-30T17:37:30.364Z,27.57
2023-11-30T17:42:31.750Z,27.75
2023-11-30T17:47:34.350Z,24.50
2023-11-30T17:52:35.798Z,27.77
2023-11-30T17:57:37.272Z,24.95
2023-11-30T18:02:38.713Z,22.43
2023-11-30T18:07:40.025Z,27.60
2023-11-30T18:12:41.487Z,30.57
2023-11-30T18:17:42.843Z,55.17
2023-11-30T18:22:44.196Z,55.50
2023-11-30T18:27:45.634Z,25.67
2023-11-30T18:32:47.233Z,25.23
2023-11-30T18:37:48.664Z,22.43
2023-11-30T18:42:50.112Z,22.00
2023-11-30T18:47:51.838Z,21.92
2023-11-30T18:52:53.645Z,23.53
2023-11-30T18:57:55.076Z,20.80
2023-11-30T19:02:56.611Z,27.37
2023-11-30T19:07:58.068Z,24.30
2023-11-30T19:12:59.442Z,27.50
2023-11-30T19:18:01.413Z,25.57
2023-11-30T19:23:02.847Z,25.90
2023-11-30T19:28:04.369Z,22.30
2023-11-30T19:33:05.999Z,25.95
2023-11-30T19:38:07.390Z,26.13
2023-11-30T19:43:08.740Z,25.20
2023-11-30T19:48:10.308Z,27.58
2023-11-30T19:53:11.689Z,21.70
2023-11-30T19:58:16.084Z,26.55
2023-11-30T20:03:17.581Z,24.00
2023-11-30T20:08:18.969Z,27.23
2023-11-30T20:13:20.461Z,25.27
2023-11-30T20:18:21.816Z,27.80
2023-11-30T20:23:23.236Z,23.80
2023-11-30T20:28:24.634Z,44.17
2023-11-30T20:33:25.970Z,75.00
2023-11-30T20:38:29.323Z,36.17
2023-11-30T20:43:30.919Z,29.27
2023-11-30T20:48:32.317Z,25.40
2023-11-30T20:53:33.775Z,26.63
2023-11-30T20:58:36.025Z,31.07
2023-11-30T21:03:37.828Z,27.85
2023-11-30T21:08:39.220Z,27.87
2023-11-30T21:13:40.730Z,25.15
2023-11-30T21:18:46.047Z,36.47
2023-11-30T21:23:47.513Z,34.30
2023-11-30T21:28:48.984Z,39.65
2023-11-30T21:33:50.969Z,30.20
2023-11-30T21:38:52.387Z,26.38
2023-11-30T21:43:53.707Z,27.60
2023-11-30T21:48:55.117Z,31.93
2023-11-30T21:53:56.477Z,31.13
2023-11-30T21:58:57.906Z,31.83
2023-11-30T22:03:59.458Z,31.88
2023-11-30T22:09:02.013Z,30.02
2023-11-30T22:14:03.376Z,27.07
2023-11-30T22:19:04.851Z,28.15
2023-11-30T22:24:06.443Z,28.83
2023-11-30T22:29:07.797Z,23.45
2023-11-30T22:34:09.457Z,19.90
2023-11-30T22:39:14.145Z,22.27
2023-11-30T22:44:15.506Z,22.05
2023-11-30T22:49:17.506Z,20.60
2023-11-30T22:54:19.090Z,23.15
2023-11-30T22:59:21.617Z,22.15
2023-11-30T23:04:23.099Z,26.80
2023-11-30T23:09:24.560Z,24.90
2023-11-30T23:14:25.852Z,20.43
2023-11-30T23:19:28.723Z,22.50
2023-11-30T23:24:32.031Z,23.35
2023-11-30T23:29:36.800Z,27.80
2023-11-30T23:34:38.209Z,28.05
2023-11-30T23:39:39.690Z,23.13
2023-11-30T23:44:41.093Z,21.13
2023-11-30T23:49:42.457Z,24.25
2023-11-30T23:54:43.929Z,18.23
2023-11-30T23:59:45.347Z,22.23
